Time;durP1;ratioP1;P1;durP2;ratioP2;P2;SDS_P1;SDS_P2;PMS_P1;PMS_P2;Temp;Humidity;BMP_temperature;BMP_pressure;BME280_temperature;BME280_humidity;BME280_pressure;Samples;Min_cycle;Max_cycle;Signal;HPM_P1;HPM_P2
2023/06/16 00:01:16;;;;;;;2.90;2.20;;;;;;;;;;5059701;28;20055;-63
2023/06/16 00:03:49;;;;;;;2.67;2.17;;;;;;;;;;5076759;28;20040;-63
2023/06/16 00:06:15;;;;;;;2.88;1.90;;;;;;;;;;5077461;28;20032;-63
2023/06/16 00:08:40;;;;;;;3.08;2.33;;;;;;;;;;5065063;28;20432;-63
2023/06/16 00:11:05;;;;;;;3.83;2.20;;;;;;;;;;5078905;28;20060;-63
2023/06/16 00:13:30;;;;;;;3.33;2.20;;;;;;;;;;5030785;28;20040;-63
2023/06/16 00:15:56;;;;;;;3.70;2.00;;;;;;;;;;5077614;28;20802;-63
2023/06/16 00:18:23;;;;;;;3.33;2.40;;;;;;;;;;5066957;28;20641;-63
2023/06/16 00:20:51;;;;;;;3.30;2.20;;;;;;;;;;5069876;28;20270;-62
2023/06/16 00:23:19;;;;;;;3.15;1.95;;;;;;;;;;5053761;28;20036;-63
2023/06/16 00:25:44;;;;;;;3.10;2.10;;;;;;;;;;5071583;28;20089;-63
2023/06/16 00:28:09;;;;;;;3.47;2.30;;;;;;;;;;5064812;28;20045;-63
2023/06/16 00:30:34;;;;;;;3.13;1.90;;;;;;;;;;5073188;28;20056;-63
2023/06/16 00:33:00;;;;;;;2.37;2.00;;;;;;;;;;5065716;28;20048;-62
2023/06/16 00:35:25;;;;;;;3.40;1.97;;;;;;;;;;5078030;28;20032;-63
2023/06/16 00:37:50;;;;;;;2.73;2.00;;;;;;;;;;5065486;28;20293;-63
2023/06/16 00:40:15;;;;;;;3.07;2.50;;;;;;;;;;5056919;28;20723;-63
2023/06/16 00:42:41;;;;;;;3.00;2.20;;;;;;;;;;5064669;28;20279;-63
2023/06/16 00:45:06;;;;;;;2.73;2.03;;;;;;;;;;5033226;28;20281;-63
2023/06/16 00:47:31;;;;;;;2.78;2.08;;;;;;;;;;5089473;28;20131;-63
2023/06/16 00:49:57;;;;;;;2.83;2.10;;;;;;;;;;5056492;28;20032;-63
2023/06/16 00:52:23;;;;;;;2.60;1.87;;;;;;;;;;5082680;28;20383;-63
2023/06/16 00:54:48;;;;;;;2.95;1.95;;;;;;;;;;5064352;28;20521;-62
2023/06/16 00:57:13;;;;;;;3.20;2.30;;;;;;;;;;5064710;28;20052;-62
2023/06/16 00:59:40;;;;;;;3.40;1.87;;;;;;;;;;5070754;28;20041;-62
2023/06/16 01:02:05;;;;;;;3.13;1.80;;;;;;;;;;5064172;28;20294;-62
2023/06/16 01:04:31;;;;;;;2.90;2.10;;;;;;;;;;5054089;28;20420;-62
2023/06/16 01:06:58;;;;;;;3.13;1.92;;;;;;;;;;5075969;28;20025;-62
2023/06/16 01:09:26;;;;;;;3.25;1.90;;;;;;;;;;5078503;28;20513;-63
2023/06/16 01:11:59;;;;;;;3.13;2.10;;;;;;;;;;5084860;28;20028;-62
2023/06/16 01:14:28;;;;;;;2.83;1.83;;;;;;;;;;5047637;28;20864;-63
2023/06/16 01:16:54;;;;;;;3.65;2.20;;;;;;;;;;5082625;28;20128;-63
2023/06/16 01:19:42;;;;;;;2.70;1.73;;;;;;;;;;5071175;28;20447;-63
2023/06/16 01:22:14;;;;;;;3.90;2.08;;;;;;;;;;5079012;28;20043;-63
2023/06/16 01:24:42;;;;;;;2.67;2.00;;;;;;;;;;5078900;28;20812;-63
2023/06/16 01:27:08;;;;;;;3.40;1.95;;;;;;;;;;5070597;28;20063;-63
2023/06/16 01:29:36;;;;;;;2.88;1.88;;;;;;;;;;5055740;28;20024;-62
2023/06/16 01:32:01;;;;;;;2.35;1.80;;;;;;;;;;5058973;28;20060;-62
2023/06/16 01:34:26;;;;;;;3.30;2.05;;;;;;;;;;5064285;28;20497;-62
2023/06/16 01:36:52;;;;;;;2.40;1.70;;;;;;;;;;5068520;28;20109;-62
2023/06/16 01:39:17;;;;;;;3.00;2.20;;;;;;;;;;5072773;28;20072;-62
2023/06/16 01:41:42;;;;;;;2.67;1.95;;;;;;;;;;5062780;28;20284;-62
2023/06/16 01:44:07;;;;;;;3.60;2.00;;;;;;;;;;5063729;28;20067;-62
2023/06/16 01:46:33;;;;;;;3.30;2.13;;;;;;;;;;5068121;28;20084;-62
2023/06/16 01:48:58;;;;;;;2.80;2.00;;;;;;;;;;5058033;28;20492;-63
2023/06/16 01:51:23;;;;;;;2.70;1.90;;;;;;;;;;5073189;28;20294;-63
2023/06/16 01:53:49;;;;;;;2.80;1.90;;;;;;;;;;5052278;28;20366;-62
2023/06/16 01:56:15;;;;;;;1.95;1.52;;;;;;;;;;5081801;28;20051;-62
2023/06/16 01:58:40;;;;;;;2.53;1.80;;;;;;;;;;5069223;28;20853;-63
2023/06/16 02:01:11;;;;;;;3.03;1.70;;;;;;;;;;5081320;28;20135;-63
2023/06/16 02:03:46;;;;;;;3.13;2.08;;;;;;;;;;5069081;28;20069;-63
2023/06/16 02:06:22;;;;;;;3.25;1.90;;;;;;;;;;5061807;28;20072;-63
2023/06/16 02:08:48;;;;;;;4.18;2.17;;;;;;;;;;5070406;28;20723;-63
2023/06/16 02:11:13;;;;;;;2.85;1.88;;;;;;;;;;5053639;28;20064;-63
2023/06/16 02:13:38;;;;;;;1.88;1.60;;;;;;;;;;5075818;28;20039;-63
2023/06/16 02:16:04;;;;;;;2.43;2.10;;;;;;;;;;5070453;28;20500;-63
2023/06/16 02:18:32;;;;;;;3.30;2.03;;;;;;;;;;5082854;28;20111;-63
2023/06/16 02:20:57;;;;;;;2.95;1.73;;;;;;;;;;5070779;28;20028;-63
2023/06/16 02:23:22;;;;;;;2.47;1.80;;;;;;;;;;5079134;28;20043;-64
2023/06/16 02:25:48;;;;;;;2.30;1.80;;;;;;;;;;5074895;28;20611;-63
2023/06/16 02:28:13;;;;;;;2.50;1.90;;;;;;;;;;5060158;28;20585;-62
2023/06/16 02:30:38;;;;;;;2.67;1.70;;;;;;;;;;5068731;28;20543;-62
2023/06/16 02:33:04;;;;;;;3.17;1.80;;;;;;;;;;5081526;28;20510;-63
2023/06/16 02:35:29;;;;;;;3.50;1.80;;;;;;;;;;5055541;28;20506;-63
2023/06/16 02:37:54;;;;;;;2.58;1.88;;;;;;;;;;5068498;28;20036;-64
2023/06/16 02:40:20;;;;;;;2.63;1.67;;;;;;;;;;5038148;28;20194;-64
2023/06/16 02:42:46;;;;;;;2.50;1.70;;;;;;;;;;5080725;28;20078;-61
2023/06/16 02:45:11;;;;;;;2.63;1.80;;;;;;;;;;5052150;28;20102;-63
2023/06/16 02:47:37;;;;;;;2.17;1.70;;;;;;;;;;5069091;28;20047;-62
2023/06/16 02:50:02;;;;;;;2.50;1.70;;;;;;;;;;5060345;28;20033;-63
2023/06/16 02:52:28;;;;;;;2.17;1.70;;;;;;;;;;5083949;28;20297;-63
2023/06/16 02:54:53;;;;;;;2.42;1.65;;;;;;;;;;5075875;28;20047;-63
2023/06/16 02:57:19;;;;;;;2.67;1.60;;;;;;;;;;5088154;28;20175;-63
2023/06/16 02:59:44;;;;;;;2.97;1.65;;;;;;;;;;5068539;28;20286;-63
2023/06/16 03:02:10;;;;;;;2.38;1.77;;;;;;;;;;5067809;28;20118;-63
2023/06/16 03:04:35;;;;;;;2.57;1.80;;;;;;;;;;5051072;28;20029;-63
2023/06/16 03:07:02;;;;;;;2.40;1.70;;;;;;;;;;5080177;28;20044;-63
2023/06/16 03:09:28;;;;;;;2.92;1.80;;;;;;;;;;5076800;28;20318;-64
2023/06/16 03:11:53;;;;;;;3.10;1.58;;;;;;;;;;5073965;28;20090;-64
2023/06/16 03:14:20;;;;;;;3.15;1.60;;;;;;;;;;5073876;28;20044;-63
2023/06/16 03:16:48;;;;;;;2.80;1.90;;;;;;;;;;5074338;28;20545;-64
2023/06/16 03:19:14;;;;;;;2.47;2.00;;;;;;;;;;5057592;28;20039;-64
2023/06/16 03:21:39;;;;;;;2.92;1.90;;;;;;;;;;5052674;28;20044;-63
2023/06/16 03:24:05;;;;;;;3.17;2.00;;;;;;;;;;5052108;28;20058;-63
2023/06/16 03:26:31;;;;;;;4.22;2.00;;;;;;;;;;5055344;28;20048;-65
2023/06/16 03:28:58;;;;;;;3.90;2.05;;;;;;;;;;5059620;28;20501;-61
2023/06/16 03:31:23;;;;;;;3.15;2.20;;;;;;;;;;5059908;28;20130;-63
2023/06/16 03:33:49;;;;;;;4.20;2.13;;;;;;;;;;5053251;28;20585;-62
2023/06/16 03:36:14;;;;;;;3.30;2.07;;;;;;;;;;5072837;28;20532;-64
2023/06/16 03:38:40;;;;;;;2.95;2.10;;;;;;;;;;5073479;28;20297;-64
2023/06/16 03:41:05;;;;;;;3.80;2.10;;;;;;;;;;5036468;28;20171;-63
2023/06/16 03:43:30;;;;;;;4.03;1.90;;;;;;;;;;5041701;28;20648;-62
2023/06/16 03:45:56;;;;;;;2.43;1.80;;;;;;;;;;5057187;28;20110;-63
2023/06/16 03:48:21;;;;;;;4.00;2.30;;;;;;;;;;5038257;28;20293;-64
2023/06/16 03:50:47;;;;;;;2.23;1.73;;;;;;;;;;5041947;28;20314;-62
2023/06/16 03:53:12;;;;;;;3.90;1.95;;;;;;;;;;5052259;28;20656;-64
2023/06/16 03:55:37;;;;;;;3.37;2.00;;;;;;;;;;5052833;28;20335;-62
2023/06/16 03:58:03;;;;;;;2.33;1.93;;;;;;;;;;5036596;28;20049;-64
2023/06/16 04:00:28;;;;;;;4.00;1.95;;;;;;;;;;5018758;28;20874;-62
2023/06/16 04:02:53;;;;;;;3.10;2.20;;;;;;;;;;5036417;28;20568;-62
2023/06/16 04:05:19;;;;;;;2.40;1.90;;;;;;;;;;5036137;28;20295;-61
2023/06/16 04:07:45;;;;;;;3.25;2.17;;;;;;;;;;5029917;28;20101;-62
2023/06/16 04:10:10;;;;;;;3.25;2.20;;;;;;;;;;5018654;28;20041;-62
2023/06/16 04:12:35;;;;;;;3.70;2.38;;;;;;;;;;5032681;28;20041;-60
2023/06/16 04:15:01;;;;;;;3.87;2.03;;;;;;;;;;5035640;28;20810;-60
2023/06/16 04:17:26;;;;;;;3.83;2.40;;;;;;;;;;5022107;28;20465;-60
2023/06/16 04:19:52;;;;;;;3.33;2.20;;;;;;;;;;5034831;28;20041;-61
2023/06/16 04:22:17;;;;;;;3.05;2.38;;;;;;;;;;5036807;28;20025;-62
2023/06/16 04:24:42;;;;;;;3.10;2.20;;;;;;;;;;5033761;28;20040;-62
2023/06/16 04:27:08;;;;;;;4.88;2.50;;;;;;;;;;5033750;28;20040;-63
2023/06/16 04:29:41;;;;;;;3.15;2.28;;;;;;;;;;5032428;28;20372;-63
2023/06/16 04:32:10;;;;;;;3.83;2.20;;;;;;;;;;5033870;28;20052;-61
2023/06/16 04:34:36;;;;;;;3.67;2.40;;;;;;;;;;5037021;28;20052;-63
2023/06/16 04:37:01;;;;;;;3.35;2.55;;;;;;;;;;5036897;28;20045;-63
2023/06/16 04:39:27;;;;;;;2.65;2.33;;;;;;;;;;5030835;28;20224;-63
2023/06/16 04:41:52;;;;;;;3.40;2.20;;;;;;;;;;5030318;28;20041;-62
2023/06/16 04:44:18;;;;;;;4.85;3.20;;;;;;;;;;5014787;28;21126;-62
2023/06/16 04:46:43;;;;;;;3.83;3.05;;;;;;;;;;5034486;28;20492;-62
2023/06/16 04:49:09;;;;;;;4.23;2.57;;;;;;;;;;5033022;28;20107;-63
2023/06/16 04:51:35;;;;;;;5.00;3.10;;;;;;;;;;5031757;28;20048;-62
2023/06/16 04:54:00;;;;;;;4.72;2.55;;;;;;;;;;5032332;28;20036;-63
2023/06/16 04:56:25;;;;;;;4.23;3.07;;;;;;;;;;5032099;28;20138;-63
2023/06/16 04:58:51;;;;;;;5.10;3.50;;;;;;;;;;5033657;28;20127;-63
2023/06/16 05:01:16;;;;;;;5.40;3.10;;;;;;;;;;5029350;28;20323;-64
2023/06/16 05:03:41;;;;;;;5.07;3.27;;;;;;;;;;5028560;28;20360;-62
2023/06/16 05:06:06;;;;;;;5.47;3.60;;;;;;;;;;5030527;28;20299;-62
2023/06/16 05:08:32;;;;;;;6.30;3.53;;;;;;;;;;5032172;28;20300;-63
2023/06/16 05:10:58;;;;;;;6.28;3.60;;;;;;;;;;5029019;28;20312;-63
2023/06/16 05:13:23;;;;;;;5.70;3.38;;;;;;;;;;5032449;28;20040;-62
2023/06/16 05:15:48;;;;;;;6.72;3.47;;;;;;;;;;5030281;28;20531;-62
2023/06/16 05:18:14;;;;;;;5.45;3.90;;;;;;;;;;5028887;28;20047;-62
2023/06/16 05:20:39;;;;;;;4.70;3.77;;;;;;;;;;5031138;28;20048;-62
2023/06/16 05:23:04;;;;;;;6.30;3.80;;;;;;;;;;5035289;28;20056;-62
2023/06/16 05:25:30;;;;;;;3.95;3.50;;;;;;;;;;5028666;28;20415;-62
2023/06/16 05:27:55;;;;;;;6.93;3.80;;;;;;;;;;5033179;28;20809;-62
2023/06/16 05:30:21;;;;;;;5.80;3.72;;;;;;;;;;5030715;28;20157;-62
2023/06/16 05:32:46;;;;;;;5.33;3.73;;;;;;;;;;5033288;28;20061;-62
2023/06/16 05:35:11;;;;;;;5.38;3.53;;;;;;;;;;5031995;28;20310;-62
2023/06/16 05:37:36;;;;;;;5.77;3.83;;;;;;;;;;5029437;28;20033;-62
2023/06/16 05:40:02;;;;;;;4.63;3.73;;;;;;;;;;5062135;28;20816;-63
2023/06/16 05:42:27;;;;;;;4.80;3.80;;;;;;;;;;5029818;28;20302;-64
2023/06/16 05:44:52;;;;;;;5.30;3.27;;;;;;;;;;5030268;28;20037;-65
2023/06/16 05:47:17;;;;;;;5.63;3.83;;;;;;;;;;5013434;28;20362;-65
2023/06/16 05:49:43;;;;;;;5.20;3.72;;;;;;;;;;5027847;28;20079;-64
2023/06/16 05:52:08;;;;;;;5.35;3.58;;;;;;;;;;5032216;28;20118;-64
2023/06/16 05:54:35;;;;;;;5.45;3.47;;;;;;;;;;5029906;28;20376;-62
2023/06/16 05:57:00;;;;;;;5.35;3.85;;;;;;;;;;5047947;28;20048;-63
2023/06/16 05:59:25;;;;;;;8.45;3.67;;;;;;;;;;5035118;28;20039;-62
2023/06/16 06:01:51;;;;;;;8.23;4.30;;;;;;;;;;5070911;28;20401;-61
2023/06/16 06:04:19;;;;;;;5.22;3.80;;;;;;;;;;5070923;28;20032;-61
2023/06/16 06:06:44;;;;;;;5.72;3.67;;;;;;;;;;5038313;28;20055;-62
2023/06/16 06:09:09;;;;;;;8.03;4.60;;;;;;;;;;5071336;28;20420;-63
2023/06/16 06:11:36;;;;;;;6.80;4.65;;;;;;;;;;5040093;28;20305;-63
2023/06/16 06:14:01;;;;;;;6.32;4.75;;;;;;;;;;5069714;28;20032;-64
2023/06/16 06:16:27;;;;;;;6.93;5.00;;;;;;;;;;5071601;28;20016;-65
2023/06/16 06:18:52;;;;;;;7.10;6.20;;;;;;;;;;5073316;28;20100;-65
2023/06/16 06:21:18;;;;;;;5.90;5.30;;;;;;;;;;5075202;28;20095;-65
2023/06/16 06:23:43;;;;;;;8.03;5.43;;;;;;;;;;5057787;28;20116;-63
2023/06/16 06:26:08;;;;;;;6.80;5.70;;;;;;;;;;5072967;28;20131;-66
2023/06/16 06:28:33;;;;;;;7.68;5.65;;;;;;;;;;5074997;28;20278;-65
2023/06/16 06:30:58;;;;;;;8.30;5.77;;;;;;;;;;5074339;28;20067;-65
2023/06/16 06:33:24;;;;;;;5.83;5.20;;;;;;;;;;5073069;28;20367;-66
2023/06/16 06:35:49;;;;;;;7.78;5.47;;;;;;;;;;5074680;28;20787;-66
2023/06/16 06:38:15;;;;;;;6.80;5.90;;;;;;;;;;5041950;28;20591;-63
2023/06/16 06:40:40;;;;;;;6.07;5.30;;;;;;;;;;5071913;28;20031;-62
2023/06/16 06:43:05;;;;;;;8.65;5.82;;;;;;;;;;5057480;28;20078;-63
2023/06/16 06:45:30;;;;;;;6.73;5.17;;;;;;;;;;5043007;28;20032;-62
2023/06/16 06:47:56;;;;;;;8.57;5.67;;;;;;;;;;5041509;28;20799;-62
2023/06/16 06:50:21;;;;;;;8.63;5.50;;;;;;;;;;5053125;28;20269;-62
2023/06/16 06:52:46;;;;;;;10.13;6.13;;;;;;;;;;5056170;28;20273;-61
2023/06/16 06:55:11;;;;;;;9.37;6.40;;;;;;;;;;5071062;28;20369;-63
2023/06/16 06:57:38;;;;;;;7.57;6.20;;;;;;;;;;5059186;28;20298;-62
2023/06/16 07:00:04;;;;;;;9.38;6.65;;;;;;;;;;5071434;28;20026;-63
2023/06/16 07:02:29;;;;;;;8.98;5.68;;;;;;;;;;5070936;28;20108;-61
2023/06/16 07:04:55;;;;;;;7.72;5.45;;;;;;;;;;5052174;28;20073;-62
2023/06/16 07:07:20;;;;;;;7.97;5.07;;;;;;;;;;5057595;28;20031;-64
2023/06/16 07:09:46;;;;;;;8.68;5.13;;;;;;;;;;5040953;28;20461;-64
2023/06/16 07:12:11;;;;;;;8.13;4.95;;;;;;;;;;5052481;28;20588;-63
2023/06/16 07:14:36;;;;;;;7.63;5.30;;;;;;;;;;5057601;28;20072;-63
2023/06/16 07:17:02;;;;;;;6.43;5.07;;;;;;;;;;5042179;28;20282;-63
2023/06/16 07:19:27;;;;;;;8.98;5.40;;;;;;;;;;5072759;28;20040;-62
2023/06/16 07:21:53;;;;;;;8.43;6.23;;;;;;;;;;5056614;28;20268;-63
2023/06/16 07:24:19;;;;;;;7.80;6.25;;;;;;;;;;5052139;28;20270;-62
2023/06/16 07:26:45;;;;;;;9.20;6.65;;;;;;;;;;5052507;28;20028;-62
2023/06/16 07:29:10;;;;;;;7.53;6.15;;;;;;;;;;5041005;28;20059;-60
2023/06/16 07:31:35;;;;;;;8.83;6.33;;;;;;;;;;5057860;28;20091;-63
2023/06/16 07:34:00;;;;;;;10.33;7.73;;;;;;;;;;5055866;28;20291;-63
2023/06/16 07:36:26;;;;;;;9.35;7.03;;;;;;;;;;5059207;28;20283;-63
2023/06/16 07:38:51;;;;;;;10.90;7.53;;;;;;;;;;5056184;28;20039;-63
2023/06/16 07:41:16;;;;;;;10.83;7.63;;;;;;;;;;5052594;28;20039;-63
2023/06/16 07:43:41;;;;;;;9.97;8.17;;;;;;;;;;5051916;28;20400;-63
2023/06/16 07:46:07;;;;;;;10.85;7.88;;;;;;;;;;5056277;28;20063;-62
2023/06/16 07:48:32;;;;;;;10.33;7.67;;;;;;;;;;5067091;28;20023;-63
2023/06/16 07:50:57;;;;;;;9.37;8.17;;;;;;;;;;5078974;28;20143;-64
2023/06/16 07:53:22;;;;;;;9.57;7.60;;;;;;;;;;5066835;28;20043;-63
2023/06/16 07:55:48;;;;;;;12.17;8.50;;;;;;;;;;5083731;28;20025;-62
2023/06/16 07:58:13;;;;;;;9.63;7.33;;;;;;;;;;5083633;28;20798;-62
2023/06/16 08:00:38;;;;;;;10.10;8.20;;;;;;;;;;5067164;28;20494;-63
2023/06/16 08:03:03;;;;;;;10.70;8.27;;;;;;;;;;5057867;28;20379;-63
2023/06/16 08:05:29;;;;;;;10.03;7.80;;;;;;;;;;5065928;28;20283;-65
2023/06/16 08:07:54;;;;;;;11.47;8.40;;;;;;;;;;5069483;28;20370;-67
2023/06/16 08:10:20;;;;;;;11.03;7.80;;;;;;;;;;5070610;28;20283;-69
2023/06/16 08:12:49;;;;;;;9.55;7.95;;;;;;;;;;5051056;28;20309;-68
2023/06/16 08:15:15;;;;;;;10.35;8.30;;;;;;;;;;5051340;28;20547;-68
2023/06/16 08:17:40;;;;;;;9.75;8.13;;;;;;;;;;5048435;28;20033;-69
2023/06/16 08:20:06;;;;;;;10.25;8.30;;;;;;;;;;5050446;28;20538;-70
2023/06/16 08:22:32;;;;;;;9.55;8.05;;;;;;;;;;5051025;28;20036;-69
2023/06/16 08:24:57;;;;;;;9.95;8.75;;;;;;;;;;5064978;28;20064;-67
2023/06/16 08:27:22;;;;;;;9.67;8.43;;;;;;;;;;5063913;28;20158;-67
2023/06/16 08:29:48;;;;;;;9.90;8.17;;;;;;;;;;5048991;28;20290;-67
2023/06/16 08:32:13;;;;;;;10.48;9.15;;;;;;;;;;5066790;28;20044;-68
2023/06/16 08:34:39;;;;;;;12.00;9.20;;;;;;;;;;5075338;28;20040;-68
2023/06/16 08:37:05;;;;;;;12.43;9.43;;;;;;;;;;5056064;28;20044;-67
2023/06/16 08:39:30;;;;;;;14.00;9.32;;;;;;;;;;5069295;28;20052;-68
2023/06/16 08:41:55;;;;;;;11.70;9.32;;;;;;;;;;5051604;28;20423;-68
2023/06/16 08:44:21;;;;;;;10.95;9.23;;;;;;;;;;5050120;28;20040;-69
2023/06/16 08:46:46;;;;;;;11.48;9.50;;;;;;;;;;5051278;28;20040;-69
2023/06/16 08:49:14;;;;;;;13.03;9.87;;;;;;;;;;5069930;28;20040;-67
2023/06/16 08:51:42;;;;;;;11.73;10.00;;;;;;;;;;5057039;28;20538;-66
2023/06/16 08:54:07;;;;;;;11.93;10.20;;;;;;;;;;5050035;28;20040;-67
2023/06/16 08:56:32;;;;;;;12.60;9.83;;;;;;;;;;5048900;28;20140;-66
2023/06/16 08:58:59;;;;;;;12.00;9.48;;;;;;;;;;5049992;28;20301;-67
2023/06/16 09:01:25;;;;;;;11.98;10.00;;;;;;;;;;5069488;28;20043;-66
2023/06/16 09:03:50;;;;;;;12.53;10.07;;;;;;;;;;5051978;28;20032;-67
2023/06/16 09:06:15;;;;;;;10.85;9.15;;;;;;;;;;5039562;28;20198;-67
2023/06/16 09:08:40;;;;;;;11.67;8.83;;;;;;;;;;5068955;28;20044;-65
2023/06/16 09:11:06;;;;;;;11.27;9.17;;;;;;;;;;5072757;28;20048;-67
2023/06/16 09:13:31;;;;;;;11.30;9.15;;;;;;;;;;5053536;28;20398;-66
2023/06/16 09:15:57;;;;;;;10.43;9.07;;;;;;;;;;5055272;28;20094;-66
2023/06/16 09:18:22;;;;;;;12.10;9.30;;;;;;;;;;5068905;28;20044;-67
2023/06/16 09:20:52;;;;;;;10.67;8.87;;;;;;;;;;5056043;28;20558;-66
2023/06/16 09:23:28;;;;;;;10.82;9.10;;;;;;;;;;5056509;28;20597;-69
2023/06/16 09:25:53;;;;;;;11.13;9.30;;;;;;;;;;5051171;28;20036;-65
2023/06/16 09:28:18;;;;;;;11.15;9.13;;;;;;;;;;5068148;28;20421;-67
2023/06/16 09:30:44;;;;;;;12.32;10.48;;;;;;;;;;5039806;28;20193;-69
2023/06/16 09:33:09;;;;;;;11.70;9.95;;;;;;;;;;5050091;28;20996;-64
2023/06/16 09:35:34;;;;;;;11.88;9.38;;;;;;;;;;5066718;28;20078;-64
2023/06/16 09:38:00;;;;;;;11.20;10.00;;;;;;;;;;5070234;28;20040;-65
2023/06/16 09:40:32;;;;;;;13.40;10.82;;;;;;;;;;5050877;28;20029;-64
2023/06/16 09:42:59;;;;;;;12.40;10.23;;;;;;;;;;5070099;28;20051;-65
2023/06/16 09:45:29;;;;;;;11.45;10.30;;;;;;;;;;5069028;28;20413;-66
2023/06/16 09:47:55;;;;;;;11.85;9.95;;;;;;;;;;5071522;28;20039;-67
2023/06/16 09:50:23;;;;;;;11.32;9.77;;;;;;;;;;5068604;28;20036;-69
2023/06/16 09:52:48;;;;;;;12.77;9.98;;;;;;;;;;5069697;28;20028;-66
2023/06/16 09:55:14;;;;;;;11.05;9.48;;;;;;;;;;5074277;28;20047;-69
2023/06/16 09:57:43;;;;;;;12.32;9.63;;;;;;;;;;5043410;28;20140;-67
2023/06/16 10:00:11;;;;;;;11.98;8.98;;;;;;;;;;5042503;28;20024;-67
2023/06/16 10:02:36;;;;;;;11.43;9.23;;;;;;;;;;5058206;28;20143;-68
2023/06/16 10:05:03;;;;;;;10.73;9.50;;;;;;;;;;5073724;28;20857;-67
2023/06/16 10:07:28;;;;;;;11.32;9.93;;;;;;;;;;5072970;28;20043;-67
2023/06/16 10:09:54;;;;;;;11.13;8.90;;;;;;;;;;5059455;28;20414;-65
2023/06/16 10:12:20;;;;;;;10.93;9.52;;;;;;;;;;5043328;28;20056;-68
2023/06/16 10:14:45;;;;;;;10.63;9.13;;;;;;;;;;5072706;28;20058;-65
2023/06/16 10:17:11;;;;;;;12.80;9.13;;;;;;;;;;5059115;28;20035;-68
2023/06/16 10:19:40;;;;;;;9.63;8.63;;;;;;;;;;5052669;28;20305;-68
2023/06/16 10:22:06;;;;;;;9.70;8.70;;;;;;;;;;5074486;28;20099;-65
2023/06/16 10:24:31;;;;;;;9.82;8.82;;;;;;;;;;5072973;28;20518;-68
2023/06/16 10:26:56;;;;;;;10.87;8.63;;;;;;;;;;5058939;28;20032;-67
2023/06/16 10:29:22;;;;;;;10.57;9.32;;;;;;;;;;5057929;28;20044;-68
2023/06/16 10:31:49;;;;;;;10.98;9.23;;;;;;;;;;5070453;28;20056;-66
2023/06/16 10:34:18;;;;;;;10.70;9.52;;;;;;;;;;5072404;28;20051;-68
2023/06/16 10:36:43;;;;;;;12.02;8.60;;;;;;;;;;5073197;28;20032;-68
2023/06/16 10:39:10;;;;;;;10.07;8.83;;;;;;;;;;5053534;28;20040;-67
2023/06/16 10:41:47;;;;;;;10.27;9.20;;;;;;;;;;5051704;28;20294;-66
2023/06/16 10:44:25;;;;;;;9.90;8.55;;;;;;;;;;5072805;28;20048;-66
2023/06/16 10:47:09;;;;;;;10.07;8.30;;;;;;;;;;5053224;28;20510;-65
2023/06/16 10:49:50;;;;;;;12.15;9.38;;;;;;;;;;5052725;28;20113;-66
2023/06/16 10:52:18;;;;;;;12.55;9.27;;;;;;;;;;5052988;28;20517;-67
2023/06/16 10:54:45;;;;;;;10.70;8.80;;;;;;;;;;5051937;28;20468;-68
2023/06/16 10:57:10;;;;;;;11.23;9.60;;;;;;;;;;5042595;28;20056;-66
2023/06/16 11:00:11;;;;;;;11.60;8.82;;;;;;;;;;5035667;28;20041;-65
2023/06/16 11:02:36;;;;;;;11.27;8.65;;;;;;;;;;5032333;28;20144;-66
2023/06/16 11:05:08;;;;;;;11.57;9.45;;;;;;;;;;5031201;28;20085;-66
2023/06/16 11:08:05;;;;;;;10.15;9.07;;;;;;;;;;5033787;28;20490;-68
2023/06/16 11:10:46;;;;;;;10.75;9.65;;;;;;;;;;5031622;28;20046;-66
2023/06/16 11:13:14;;;;;;;9.90;8.90;;;;;;;;;;5032184;28;20483;-65
2023/06/16 11:15:41;;;;;;;10.32;9.32;;;;;;;;;;5028942;28;21544;-70
2023/06/16 11:18:06;;;;;;;10.13;8.73;;;;;;;;;;5017928;28;20045;-66
2023/06/16 11:20:32;;;;;;;10.77;8.40;;;;;;;;;;5029561;28;20614;-66
2023/06/16 11:22:57;;;;;;;10.48;8.77;;;;;;;;;;5031909;28;20455;-67
2023/06/16 11:25:22;;;;;;;12.20;9.17;;;;;;;;;;5030929;28;20230;-65
2023/06/16 11:27:47;;;;;;;9.43;8.52;;;;;;;;;;5033929;28;20280;-63
2023/06/16 11:30:13;;;;;;;9.30;8.32;;;;;;;;;;5032786;28;20029;-69
2023/06/16 11:32:40;;;;;;;10.65;8.52;;;;;;;;;;5031322;28;20473;-72
2023/06/16 11:35:05;;;;;;;9.15;8.25;;;;;;;;;;5039668;28;20029;-70
2023/06/16 11:37:40;;;;;;;8.82;7.50;;;;;;;;;;5031045;28;20041;-68
2023/06/16 11:40:06;;;;;;;8.60;7.70;;;;;;;;;;5028466;28;20416;-65
2023/06/16 11:42:32;;;;;;;9.43;7.80;;;;;;;;;;5036058;28;21448;-68
2023/06/16 11:44:57;;;;;;;9.65;8.18;;;;;;;;;;5045458;28;20046;-67
2023/06/16 11:47:22;;;;;;;8.87;7.90;;;;;;;;;;5028642;28;20079;-66
2023/06/16 11:50:19;;;;;;;8.53;7.70;;;;;;;;;;5023377;28;20329;-66
2023/06/16 11:52:45;;;;;;;8.50;7.07;;;;;;;;;;5106028;22;20296;-71
2023/06/16 11:55:13;;;;;;;12.35;7.85;;;;;;;;;;5094083;28;20043;-69
2023/06/16 11:57:38;;;;;;;8.70;6.82;;;;;;;;;;5098241;22;20043;-66
2023/06/16 12:00:05;;;;;;;8.75;7.25;;;;;;;;;;5064808;28;20041;-66
2023/06/16 12:02:30;;;;;;;7.90;7.05;;;;;;;;;;5042705;28;20041;-66
2023/06/16 12:04:56;;;;;;;8.87;7.40;;;;;;;;;;5065101;28;20086;-66
2023/06/16 12:07:21;;;;;;;9.15;7.50;;;;;;;;;;5065969;28;20090;-66
2023/06/16 12:09:46;;;;;;;8.20;7.03;;;;;;;;;;5060681;28;20029;-67
2023/06/16 12:12:13;;;;;;;7.60;6.57;;;;;;;;;;5077087;23;20287;-68
2023/06/16 12:14:39;;;;;;;6.93;6.22;;;;;;;;;;5049738;28;20043;-69
2023/06/16 12:17:04;;;;;;;8.38;6.75;;;;;;;;;;5030736;28;20406;-64
2023/06/16 12:19:29;;;;;;;7.38;6.53;;;;;;;;;;5048509;28;20542;-67
2023/06/16 12:22:01;;;;;;;7.85;7.05;;;;;;;;;;5063192;28;20503;-70
2023/06/16 12:24:27;;;;;;;9.55;6.18;;;;;;;;;;5031549;28;20119;-69
2023/06/16 12:26:52;;;;;;;7.07;6.38;;;;;;;;;;5066462;28;20105;-69
2023/06/16 12:29:18;;;;;;;6.85;6.15;;;;;;;;;;5067514;28;20036;-68
2023/06/16 12:31:50;;;;;;;7.03;6.32;;;;;;;;;;5071546;22;20044;-65
2023/06/16 12:34:19;;;;;;;8.23;6.32;;;;;;;;;;5042681;28;20059;-64
2023/06/16 12:36:44;;;;;;;8.02;6.47;;;;;;;;;;5049124;28;20028;-68
2023/06/16 12:39:18;;;;;;;7.30;6.00;;;;;;;;;;5047874;28;20548;-69
2023/06/16 12:42:00;;;;;;;7.15;6.35;;;;;;;;;;5059516;28;20073;-68
2023/06/16 12:44:44;;;;;;;7.85;5.47;;;;;;;;;;5044674;28;20062;-69
2023/06/16 12:47:09;;;;;;;7.10;5.30;;;;;;;;;;5052032;28;20479;-63
2023/06/16 12:49:34;;;;;;;5.43;4.78;;;;;;;;;;5043780;28;20119;-62
2023/06/16 12:52:01;;;;;;;6.65;5.20;;;;;;;;;;5049688;28;20048;-63
2023/06/16 12:54:26;;;;;;;6.63;4.72;;;;;;;;;;5061251;28;20514;-66
2023/06/16 12:56:51;;;;;;;5.90;5.07;;;;;;;;;;5050111;28;20028;-66
2023/06/16 12:59:18;;;;;;;5.75;4.78;;;;;;;;;;5061142;28;20656;-62
2023/06/16 13:01:44;;;;;;;8.50;4.63;;;;;;;;;;5044315;28;20036;-65
2023/06/16 13:04:10;;;;;;;7.25;4.95;;;;;;;;;;5061667;28;20049;-66
2023/06/16 13:06:35;;;;;;;5.82;4.47;;;;;;;;;;5045475;28;20036;-70
2023/06/16 13:09:00;;;;;;;9.50;4.90;;;;;;;;;;5049979;28;20110;-64
2023/06/16 13:11:26;;;;;;;7.55;5.20;;;;;;;;;;5053957;28;20307;-68
2023/06/16 13:13:52;;;;;;;7.50;4.82;;;;;;;;;;5058457;28;20028;-63
2023/06/16 13:16:17;;;;;;;5.88;5.00;;;;;;;;;;5050341;28;20095;-70
2023/06/16 13:18:43;;;;;;;6.80;5.20;;;;;;;;;;5049892;28;20087;-65
2023/06/16 13:21:08;;;;;;;9.43;5.22;;;;;;;;;;5054328;28;20048;-65
2023/06/16 13:23:34;;;;;;;10.63;5.80;;;;;;;;;;5053934;28;20422;-70
2023/06/16 13:25:59;;;;;;;6.75;5.22;;;;;;;;;;5049532;28;20039;-66
2023/06/16 13:28:24;;;;;;;7.43;5.40;;;;;;;;;;5058835;28;20071;-64
2023/06/16 13:30:50;;;;;;;6.07;5.13;;;;;;;;;;5048737;28;20479;-63
2023/06/16 13:33:15;;;;;;;6.47;5.28;;;;;;;;;;5050663;28;20037;-69
2023/06/16 13:35:40;;;;;;;7.63;5.57;;;;;;;;;;5061713;28;20029;-68
2023/06/16 13:38:06;;;;;;;6.85;5.50;;;;;;;;;;5049301;28;20800;-67
2023/06/16 13:40:31;;;;;;;7.70;5.60;;;;;;;;;;5034292;28;20044;-70
2023/06/16 13:42:59;;;;;;;9.23;5.80;;;;;;;;;;5036266;28;20279;-68
2023/06/16 13:45:24;;;;;;;7.13;5.70;;;;;;;;;;5045594;28;20043;-67
2023/06/16 13:47:50;;;;;;;6.80;5.37;;;;;;;;;;5054336;28;20045;-66
2023/06/16 13:50:15;;;;;;;6.75;5.60;;;;;;;;;;5063057;28;20275;-70
2023/06/16 13:52:40;;;;;;;6.38;5.28;;;;;;;;;;5056940;28;20064;-67
2023/06/16 13:55:06;;;;;;;6.63;5.67;;;;;;;;;;5027537;28;20037;-64
2023/06/16 13:57:31;;;;;;;6.75;5.53;;;;;;;;;;5024521;28;20088;-68
2023/06/16 13:59:58;;;;;;;7.07;5.20;;;;;;;;;;5037357;28;20029;-69
2023/06/16 14:02:24;;;;;;;5.15;4.57;;;;;;;;;;5063247;28;20052;-65
2023/06/16 14:04:49;;;;;;;6.20;5.47;;;;;;;;;;5058680;28;20126;-67
2023/06/16 14:07:14;;;;;;;5.80;5.20;;;;;;;;;;5032830;28;20507;-67
2023/06/16 14:09:39;;;;;;;6.20;5.10;;;;;;;;;;5047031;28;20356;-66
2023/06/16 14:12:06;;;;;;;6.60;5.40;;;;;;;;;;5062851;28;20051;-66
2023/06/16 14:14:31;;;;;;;6.47;4.95;;;;;;;;;;5064724;28;20103;-65
2023/06/16 14:16:56;;;;;;;6.63;5.13;;;;;;;;;;5064416;28;20541;-67
2023/06/16 14:19:22;;;;;;;5.83;5.10;;;;;;;;;;5032808;28;20090;-69
2023/06/16 14:21:47;;;;;;;6.88;5.28;;;;;;;;;;5066095;28;20063;-69
2023/06/16 14:24:12;;;;;;;6.67;5.00;;;;;;;;;;5064312;28;20503;-67
2023/06/16 14:26:38;;;;;;;5.83;5.20;;;;;;;;;;5052657;28;20717;-68
2023/06/16 14:29:03;;;;;;;6.53;5.17;;;;;;;;;;5045909;28;20457;-70
2023/06/16 14:31:28;;;;;;;5.90;4.77;;;;;;;;;;5033985;28;20181;-63
2023/06/16 14:33:54;;;;;;;6.17;4.87;;;;;;;;;;5062721;28;20068;-64
2023/06/16 14:36:20;;;;;;;5.70;4.90;;;;;;;;;;5042138;28;20040;-70